Time;durP1;ratioP1;P1;durP2;ratioP2;P2;SDS_P1;SDS_P2;PMS_P1;PMS_P2;Temp;Humidity;BMP_temperature;BMP_pressure;BME280_temperature;BME280_humidity;BME280_pressure;Samples;Min_cycle;Max_cycle;Signal;HPM_P1;HPM_P2
2022/12/03 00:00:43;;;;;;;41.30;17.25;;;;;;;5.66;59.49;100559.00;4400127;32;20109;-93
2022/12/03 00:03:08;;;;;;;36.92;17.17;;;;;;;5.61;59.49;100563.31;4412897;32;20113;-92
2022/12/03 00:05:33;;;;;;;40.35;16.12;;;;;;;5.56;59.49;100565.87;4400679;32;35037;-93
2022/12/03 00:07:59;;;;;;;34.70;15.18;;;;;;;5.65;59.50;100563.31;4402333;32;20125;-92
2022/12/03 00:10:24;;;;;;;39.13;17.48;;;;;;;5.59;59.49;100563.31;4426777;32;20488;-91
2022/12/03 00:12:50;;;;;;;35.95;15.43;;;;;;;5.60;59.48;100567.59;4391024;32;34198;-89
2022/12/03 00:15:15;;;;;;;42.88;18.92;;;;;;;5.53;59.49;100571.03;4401687;32;38330;-91
2022/12/03 00:17:40;;;;;;;42.95;16.83;;;;;;;5.74;59.50;100578.81;4415146;32;20129;-90
2022/12/03 00:20:06;;;;;;;41.08;17.05;;;;;;;5.83;59.50;100570.22;4396362;32;34491;-90
2022/12/03 00:22:32;;;;;;;39.60;17.10;;;;;;;5.80;59.50;100573.66;4387638;32;20112;-91
2022/12/03 00:24:57;;;;;;;37.90;16.95;;;;;;;5.81;59.50;100572.78;4422616;32;32724;-92
2022/12/03 00:27:22;;;;;;;37.35;16.65;;;;;;;5.75;59.49;100577.09;4399390;32;30943;-92
2022/12/03 00:29:48;;;;;;;43.20;17.40;;;;;;;5.87;59.50;100575.38;4389508;32;23175;-91
2022/12/03 00:32:13;;;;;;;39.72;17.52;;;;;;;5.78;59.50;100579.69;4414329;32;32939;-92
2022/12/03 00:34:38;;;;;;;37.92;16.62;;;;;;;5.79;59.50;100578.81;4400458;32;20128;-91
2022/12/03 00:37:04;;;;;;;37.20;17.83;;;;;;;5.80;59.50;100581.41;4404390;32;33649;-92
2022/12/03 00:39:29;;;;;;;40.47;17.37;;;;;;;5.87;59.50;100572.78;4401861;32;21501;-90
2022/12/03 00:41:55;;;;;;;40.00;16.60;;;;;;;5.87;59.50;100572.78;4427811;32;20135;-93
2022/12/03 00:44:20;;;;;;;37.95;18.20;;;;;;;5.84;59.51;100572.78;4393455;32;29264;-92
2022/12/03 00:46:45;;;;;;;41.97;17.67;;;;;;;5.90;59.50;100576.25;4411798;32;36978;-92
2022/12/03 00:49:11;;;;;;;43.50;17.42;;;;;;;5.92;59.51;100574.56;4401731;32;38479;-92
2022/12/03 00:51:36;;;;;;;36.90;17.05;;;;;;;5.88;59.50;100586.56;4390128;32;27887;-93
2022/12/03 00:54:01;;;;;;;40.80;18.05;;;;;;;5.90;59.52;100577.13;4416874;32;32069;-91
2022/12/03 00:56:27;;;;;;;40.90;17.25;;;;;;;5.78;59.50;100577.97;4401892;32;20159;-91
2022/12/03 00:58:52;;;;;;;39.42;17.60;;;;;;;5.84;59.51;100580.53;4397906;32;30658;-91
2022/12/03 01:01:18;;;;;;;41.63;18.12;;;;;;;5.73;59.50;100581.41;4397687;32;20108;-92
2022/12/03 01:03:43;;;;;;;42.20;17.37;;;;;;;5.67;59.49;100578.78;4403203;32;24546;-93
2022/12/03 01:06:08;;;;;;;42.40;16.52;;;;;;;5.81;59.50;100575.38;4423283;32;20153;-92
2022/12/03 01:08:34;;;;;;;42.70;16.85;;;;;;;5.80;59.50;100576.22;4402002;32;20133;-91
2022/12/03 01:10:59;;;;;;;42.05;18.17;;;;;;;5.82;59.50;100578.81;4391405;32;20120;-92
2022/12/03 01:13:25;;;;;;;37.95;17.10;;;;;;;5.84;59.51;100577.09;4405869;32;32021;-90
2022/12/03 01:15:50;;;;;;;45.63;18.05;;;;;;;5.84;59.51;100570.19;4402248;32;20187;-91
2022/12/03 01:18:15;;;;;;;41.15;17.25;;;;;;;5.76;59.51;100574.53;4397915;32;30802;-92
2022/12/03 01:20:41;;;;;;;44.95;19.02;;;;;;;5.81;59.50;100571.94;4384915;32;28072;-92
2022/12/03 01:23:06;;;;;;;42.17;16.73;;;;;;;5.90;59.51;100569.37;4396970;32;20132;-92
2022/12/03 01:25:31;;;;;;;40.75;16.40;;;;;;;5.87;59.50;100567.62;4396100;32;38036;-91
2022/12/03 01:27:57;;;;;;;44.90;17.80;;;;;;;5.73;59.49;100574.53;4398717;32;20740;-92
2022/12/03 01:30:22;;;;;;;40.65;17.12;;;;;;;5.78;59.51;100577.97;4409149;32;29467;-93
2022/12/03 01:32:48;;;;;;;44.22;18.42;;;;;;;5.75;59.50;100575.38;4386821;32;20121;-93
2022/12/03 01:35:13;;;;;;;45.08;18.12;;;;;;;5.78;59.50;100577.97;4415767;32;38335;-93
2022/12/03 01:37:38;;;;;;;42.22;18.55;;;;;;;5.73;59.50;100579.69;4401702;32;26976;-92
2022/12/03 01:40:04;;;;;;;44.85;18.77;;;;;;;5.80;59.50;100577.97;4411347;32;33305;-92
2022/12/03 01:42:34;;;;;;;47.70;17.98;;;;;;;5.72;59.50;100584.84;4387110;32;20164;-92
2022/12/03 01:45:00;;;;;;;48.83;18.77;;;;;;;5.71;59.50;100583.13;4388948;32;20105;-93
2022/12/03 01:47:43;;;;;;;44.20;18.87;;;;;;;5.91;59.51;100578.84;4402251;32;20108;-93
2022/12/03 01:50:19;;;;;;;41.65;18.10;;;;;;;5.90;59.52;100582.28;4401071;32;38559;-93
2022/12/03 01:52:45;;;;;;;65.37;19.55;;;;;;;5.91;59.52;100584.00;4427509;32;20436;-94
2022/12/03 01:55:12;;;;;;;46.47;18.42;;;;;;;5.90;59.51;100586.59;4401787;32;25407;-93
2022/12/03 01:57:49;;;;;;;45.47;17.83;;;;;;;5.88;59.50;100576.22;4402266;32;20113;-93
2022/12/03 02:00:19;;;;;;;43.35;17.85;;;;;;;5.81;59.50;100579.69;4415362;32;20085;-92
2022/12/03 02:02:45;;;;;;;46.90;17.85;;;;;;;5.81;59.50;100577.09;4413848;32;20105;-94
2022/12/03 02:05:16;;;;;;;51.42;19.75;;;;;;;5.76;59.50;100577.09;4401842;32;20473;-94
2022/12/03 02:07:42;;;;;;;42.20;17.92;;;;;;;5.73;59.50;100568.50;4402194;32;20089;-93
2022/12/03 02:10:07;;;;;;;44.47;17.98;;;;;;;5.75;59.50;100569.34;4414798;32;20136;-93
2022/12/03 02:12:35;;;;;;;49.53;20.52;;;;;;;5.77;59.51;100575.38;4390271;32;20105;-93
2022/12/03 02:15:01;;;;;;;41.45;18.15;;;;;;;5.73;59.49;100578.81;4387241;32;20132;-93
2022/12/03 02:17:26;;;;;;;40.67;18.37;;;;;;;5.70;59.50;100569.34;4421678;32;34822;-93
2022/12/03 02:19:52;;;;;;;47.88;18.20;;;;;;;5.65;59.50;100567.59;4387180;32;20153;-93
2022/12/03 02:22:29;;;;;;;49.00;19.33;;;;;;;5.68;59.49;100575.34;4384875;32;20136;-93
2022/12/03 02:24:58;;;;;;;49.15;18.92;;;;;;;5.64;59.49;100571.91;4425708;32;20134;-95
2022/12/03 02:27:23;;;;;;;43.03;17.80;;;;;;;5.69;59.50;100572.81;4417276;32;20093;-93
2022/12/03 02:29:49;;;;;;;43.13;18.08;;;;;;;5.70;59.50;100571.94;4411494;32;20188;-92
2022/12/03 02:32:14;;;;;;;43.70;17.25;;;;;;;5.74;59.50;100570.22;4398693;32;31857;-93
2022/12/03 02:34:41;;;;;;;43.25;17.75;;;;;;;5.60;59.48;100569.31;4422364;32;25646;-92
2022/12/03 02:37:13;;;;;;;46.90;18.60;;;;;;;5.66;59.49;100565.03;4413849;32;20802;-92
2022/12/03 02:39:39;;;;;;;41.72;17.92;;;;;;;5.72;59.49;100567.62;4402129;32;20081;-92
2022/12/03 02:44:49;;;;;;;46.95;18.67;;;;;;;5.79;59.50;100571.94;4414063;32;20504;-92
2022/12/03 02:47:14;;;;;;;42.35;17.62;;;;;;;5.86;59.50;100565.03;4400317;32;36998;-92
2022/12/03 02:49:39;;;;;;;51.08;19.62;;;;;;;5.93;59.51;100571.12;4400934;32;39699;-91
2022/12/03 02:52:05;;;;;;;46.40;17.90;;;;;;;5.83;59.50;100570.22;4390422;32;29840;-92
2022/12/03 02:54:30;;;;;;;47.85;19.23;;;;;;;5.96;59.51;100566.81;4401415;32;20166;-92
2022/12/03 02:56:56;;;;;;;41.65;18.23;;;;;;;5.92;59.51;100567.69;4401317;32;23071;-92
2022/12/03 02:59:21;;;;;;;43.58;18.77;;;;;;;5.89;59.50;100570.19;4402207;32;37279;-93
2022/12/03 03:01:47;;;;;;;44.50;18.52;;;;;;;5.89;59.50;100566.75;4401722;32;36059;-92
2022/12/03 03:04:12;;;;;;;46.53;18.62;;;;;;;5.74;59.50;100565.03;4396795;32;20093;-92
2022/12/03 03:06:37;;;;;;;46.63;19.92;;;;;;;5.64;59.49;100574.50;4398226;32;31979;-91
2022/12/03 03:09:03;;;;;;;48.05;18.77;;;;;;;5.71;59.50;100570.22;4408512;32;36181;-92
2022/12/03 03:11:28;;;;;;;46.35;18.60;;;;;;;5.69;59.50;100570.22;4398133;32;34698;-93
2022/12/03 03:13:54;;;;;;;42.80;19.45;;;;;;;5.79;59.50;100576.25;4395187;32;33978;-92
2022/12/03 03:16:19;;;;;;;41.95;18.62;;;;;;;5.79;59.50;100581.41;4400410;32;38272;-92
2022/12/03 03:18:44;;;;;;;46.35;18.08;;;;;;;5.87;59.50;100572.78;4401391;32;20132;-93
2022/12/03 03:21:11;;;;;;;45.65;19.15;;;;;;;5.92;59.51;100579.72;4388348;32;34253;-92
2022/12/03 03:23:36;;;;;;;46.80;19.60;;;;;;;6.05;59.51;100582.31;4411251;32;20069;-94
2022/12/03 03:26:04;;;;;;;42.95;18.83;;;;;;;6.06;59.52;100576.28;4421318;32;29091;-92
2022/12/03 03:28:30;;;;;;;43.47;18.98;;;;;;;5.82;59.50;100574.50;4411109;32;20108;-92
2022/12/03 03:30:57;;;;;;;42.03;18.65;;;;;;;6.01;59.51;100574.56;4386279;32;20137;-92
2022/12/03 03:33:22;;;;;;;47.28;18.37;;;;;;;5.98;59.51;100562.50;4414543;32;20125;-92
2022/12/03 03:35:47;;;;;;;41.28;18.60;;;;;;;6.11;59.51;100576.25;4400041;32;30605;-92
2022/12/03 03:38:13;;;;;;;42.08;19.65;;;;;;;6.07;59.52;100571.97;4400991;32;20098;-93
2022/12/03 03:40:39;;;;;;;43.45;19.62;;;;;;;6.15;59.52;100560.78;4415600;32;20138;-92
2022/12/03 03:43:04;;;;;;;49.50;18.45;;;;;;;5.99;59.52;100566.81;4392324;32;20140;-95
2022/12/03 03:45:29;;;;;;;46.05;19.60;;;;;;;6.06;59.52;100563.34;4397611;32;35488;-94
2022/12/03 03:47:56;;;;;;;42.90;19.37;;;;;;;5.87;59.50;100571.94;4384903;32;36264;-94
2022/12/03 03:50:21;;;;;;;49.47;19.10;;;;;;;5.98;59.51;100567.66;4398091;32;20160;-95
2022/12/03 03:52:47;;;;;;;41.15;18.48;;;;;;;5.98;59.51;100570.25;4407003;32;30983;-95
2022/12/03 03:55:12;;;;;;;45.30;18.02;;;;;;;5.98;59.50;100569.37;4402336;32;22180;-95
2022/12/03 03:57:37;;;;;;;39.42;17.65;;;;;;;5.95;59.51;100569.41;4402618;32;25106;-95
2022/12/03 04:00:04;;;;;;;45.15;19.10;;;;;;;6.02;59.52;100571.09;4402900;32;20089;-94
2022/12/03 04:02:30;;;;;;;44.28;18.02;;;;;;;5.83;59.50;100570.22;4398594;32;20187;-93
2022/12/03 04:04:56;;;;;;;45.42;17.77;;;;;;;5.94;59.51;100565.09;4400310;32;20086;-95
2022/12/03 04:07:21;;;;;;;43.95;17.92;;;;;;;5.91;59.51;100570.22;4387887;32;20157;-94
2022/12/03 04:09:46;;;;;;;39.58;18.05;;;;;;;5.88;59.50;100576.22;4399870;32;30769;-96
2022/12/03 04:14:56;;;;;;;41.83;17.98;;;;;;;5.96;59.51;100581.44;4410281;32;20104;-94
2022/12/03 04:17:22;;;;;;;39.70;18.12;;;;;;;5.81;59.50;100584.84;4402835;32;20129;-93
2022/12/03 04:19:47;;;;;;;40.45;18.58;;;;;;;5.83;59.50;100577.97;4402935;32;20125;-96
2022/12/03 04:28:47;;;;;;;43.67;18.55;;;;;;;5.72;59.49;100572.78;4408088;32;21287;-94
2022/12/03 04:30:26;;;;;;;43.83;18.12;;;;;;;5.93;59.51;100571.12;4413019;32;20171;-94
2022/12/03 04:35:42;;;;;;;43.40;19.55;;;;;;;5.91;59.51;100563.34;4419696;32;20162;-94
2022/12/03 04:38:10;;;;;;;41.13;17.42;;;;;;;5.72;59.50;100577.09;4392200;32;20151;-94
2022/12/03 04:43:20;;;;;;;43.00;18.30;;;;;;;5.84;59.51;100570.19;4405245;32;20928;-93
2022/12/03 04:45:46;;;;;;;40.28;18.95;;;;;;;5.84;59.51;100583.13;4410619;32;20110;-93
2022/12/03 04:48:11;;;;;;;44.90;19.05;;;;;;;5.93;59.51;100571.12;4398574;32;32032;-93
2022/12/03 04:50:36;;;;;;;44.63;19.33;;;;;;;5.93;59.51;100566.81;4397453;32;22646;-93
2022/12/03 04:53:02;;;;;;;45.30;19.83;;;;;;;5.87;59.51;100577.09;4387036;32;28146;-91
2022/12/03 04:55:27;;;;;;;43.78;20.27;;;;;;;5.80;59.50;100571.06;4387146;32;33488;-92
2022/12/03 04:57:52;;;;;;;39.33;18.10;;;;;;;5.75;59.49;100574.53;4387607;32;20135;-92
2022/12/03 05:00:18;;;;;;;39.45;18.30;;;;;;;5.80;59.50;100570.22;4412147;32;28175;-91
2022/12/03 05:02:43;;;;;;;44.28;19.58;;;;;;;5.74;59.49;100570.22;4387348;32;20389;-92
2022/12/03 05:05:09;;;;;;;41.60;17.35;;;;;;;5.82;59.50;100579.69;4423016;32;34153;-94
2022/12/03 05:07:35;;;;;;;40.97;18.55;;;;;;;5.82;59.50;100583.97;4402700;32;20138;-93
2022/12/03 05:10:00;;;;;;;43.35;19.42;;;;;;;5.84;59.51;100587.44;4415353;32;20444;-96
2022/12/03 05:12:26;;;;;;;40.78;19.67;;;;;;;5.59;59.49;100589.13;4404054;32;32138;-95
2022/12/03 05:14:51;;;;;;;48.70;20.12;;;;;;;5.59;59.49;100589.13;4402207;32;28054;-95
2022/12/03 05:17:16;;;;;;;45.75;18.80;;;;;;;5.76;59.50;100587.44;4393001;32;30987;-93
2022/12/03 05:22:26;;;;;;;47.88;20.30;;;;;;;5.87;59.50;100592.59;4414127;32;20168;-96
2022/12/03 05:24:51;;;;;;;45.63;19.75;;;;;;;5.82;59.50;100590.00;4402059;32;33936;-96
2022/12/03 05:27:17;;;;;;;48.40;19.48;;;;;;;5.74;59.49;100599.50;4402390;32;20641;-94
2022/12/03 05:29:42;;;;;;;44.90;19.75;;;;;;;5.82;59.50;100597.75;4400721;32;20098;-94
2022/12/03 05:32:07;;;;;;;42.67;19.08;;;;;;;5.82;59.50;100595.19;4393648;32;20378;-92
2022/12/03 05:34:33;;;;;;;50.08;19.33;;;;;;;5.62;59.49;100593.44;4400124;32;24979;-93
2022/12/03 05:36:58;;;;;;;51.45;21.92;;;;;;;5.71;59.50;100594.31;4426809;32;30502;-90
2022/12/03 05:39:24;;;;;;;47.62;20.05;;;;;;;5.64;59.49;100607.22;4415515;32;23452;-92
2022/12/03 05:44:33;;;;;;;48.97;20.37;;;;;;;5.68;59.49;100606.34;4404649;32;20108;-92
2022/12/03 05:46:58;;;;;;;46.22;19.77;;;;;;;5.73;59.49;100607.25;4413017;32;37379;-93
2022/12/03 05:49:23;;;;;;;46.03;19.40;;;;;;;5.67;59.49;100610.66;4426258;32;35098;-94
2022/12/03 05:51:49;;;;;;;44.65;19.67;;;;;;;5.70;59.50;100617.56;4426959;32;27378;-95
2022/12/03 05:54:14;;;;;;;46.40;19.95;;;;;;;5.62;59.50;100616.69;4427654;32;20125;-95
2022/12/03 05:56:40;;;;;;;45.10;19.48;;;;;;;5.61;59.48;100620.13;4416818;32;20406;-94
2022/12/03 05:59:05;;;;;;;47.60;19.45;;;;;;;5.71;59.50;100619.28;4419696;32;20189;-95
2022/12/03 06:01:31;;;;;;;50.30;19.52;;;;;;;5.59;59.49;100625.28;4408864;32;20140;-91
2022/12/03 06:03:56;;;;;;;43.05;18.90;;;;;;;5.67;59.49;100623.56;4407349;32;23121;-94
2022/12/03 06:06:21;;;;;;;49.08;20.73;;;;;;;5.69;59.50;100621.00;4396834;32;24594;-91
2022/12/03 06:08:47;;;;;;;47.95;20.05;;;;;;;5.48;59.48;100627.00;4387804;32;31854;-91
2022/12/03 06:11:12;;;;;;;54.25;20.58;;;;;;;5.52;59.48;100626.13;4423655;32;20675;-91
2022/12/03 06:13:37;;;;;;;50.55;20.05;;;;;;;5.63;59.49;100621.84;4407481;32;20164;-92
2022/12/03 06:16:03;;;;;;;55.83;20.75;;;;;;;5.60;59.48;100615.81;4427183;32;22857;-93
2022/12/03 06:18:28;;;;;;;49.25;19.25;;;;;;;5.70;59.50;100615.00;4393582;32;20118;-92
2022/12/03 06:20:54;;;;;;;46.05;19.33;;;;;;;5.66;59.48;100614.09;4410246;32;24739;-90
2022/12/03 06:23:19;;;;;;;49.72;20.08;;;;;;;5.76;59.50;100605.50;4416083;32;33644;-91
2022/12/03 06:25:45;;;;;;;44.60;19.23;;;;;;;5.59;59.49;100606.34;4426944;32;31540;-91
2022/12/03 06:28:10;;;;;;;45.75;18.15;;;;;;;5.68;59.50;100599.50;4426938;32;20152;-90
2022/12/03 06:30:35;;;;;;;50.08;20.45;;;;;;;5.60;59.48;100611.50;4427196;32;20113;-90
2022/12/03 06:33:01;;;;;;;49.17;19.83;;;;;;;5.48;59.49;100619.25;4413466;32;20133;-92
2022/12/03 06:35:26;;;;;;;53.08;20.65;;;;;;;5.47;59.48;100620.09;4417115;32;30085;-90
2022/12/03 06:37:51;;;;;;;44.35;19.17;;;;;;;5.45;59.48;100614.06;4426740;32;22744;-91
2022/12/03 06:40:17;;;;;;;44.20;18.45;;;;;;;5.60;59.48;100615.81;4422072;32;31710;-91
2022/12/03 06:42:42;;;;;;;46.00;18.80;;;;;;;5.62;59.49;100602.03;4420612;32;20136;-91
2022/12/03 06:45:08;;;;;;;46.35;18.85;;;;;;;5.65;59.49;100609.78;4413825;32;20090;-92
2022/12/03 06:47:34;;;;;;;41.83;18.60;;;;;;;5.61;59.50;100610.66;4387057;32;20382;-91
2022/12/03 06:49:59;;;;;;;44.70;18.48;;;;;;;5.62;59.50;100616.69;4398862;32;20151;-91
2022/12/03 06:52:24;;;;;;;44.67;18.23;;;;;;;5.67;59.49;100618.41;4411565;32;20144;-90
2022/12/03 06:54:50;;;;;;;48.78;19.02;;;;;;;5.67;59.49;100615.81;4396288;32;20128;-91
2022/12/03 06:57:15;;;;;;;43.95;18.48;;;;;;;5.75;59.49;100619.28;4426752;32;20162;-90
2022/12/03 06:59:41;;;;;;;47.65;18.05;;;;;;;5.70;59.50;100626.19;4426941;32;20167;-91
2022/12/03 07:02:06;;;;;;;47.00;18.75;;;;;;;5.79;59.50;100626.19;4426766;32;20120;-91
2022/12/03 07:04:31;;;;;;;49.42;18.67;;;;;;;5.92;59.51;100621.94;4426772;32;20144;-89
2022/12/03 07:06:57;;;;;;;46.60;18.60;;;;;;;5.89;59.50;100627.03;4426231;32;24495;-91
2022/12/03 07:09:22;;;;;;;42.28;17.15;;;;;;;5.82;59.50;100615.84;4424191;32;20137;-92
2022/12/03 07:11:48;;;;;;;47.10;20.10;;;;;;;6.00;59.51;100621.94;4398270;32;26396;-91
2022/12/03 07:14:13;;;;;;;49.15;18.58;;;;;;;6.07;59.52;100621.94;4423405;32;20127;-92
2022/12/03 07:16:39;;;;;;;44.97;18.67;;;;;;;6.19;59.51;100617.63;4403318;32;20163;-92
2022/12/03 07:19:05;;;;;;;42.90;18.42;;;;;;;6.28;59.53;100623.66;4418257;32;20476;-90
2022/12/03 07:21:31;;;;;;;44.33;19.85;;;;;;;6.11;59.51;100617.63;4398283;32;20180;-91
2022/12/03 07:23:56;;;;;;;44.65;19.75;;;;;;;6.15;59.53;100611.56;4396012;32;20094;-91
2022/12/03 07:26:22;;;;;;;38.05;18.33;;;;;;;6.22;59.53;100612.47;4413231;32;20183;-90
2022/12/03 07:28:47;;;;;;;44.15;18.85;;;;;;;6.21;59.53;100609.00;4394583;32;20139;-92
2022/12/03 07:31:13;;;;;;;50.25;20.25;;;;;;;6.21;59.53;100615.91;4425858;32;39433;-91
2022/12/03 07:33:38;;;;;;;46.92;19.62;;;;;;;6.18;59.52;100614.19;4392628;32;20134;-92
2022/12/03 07:36:04;;;;;;;45.92;18.87;;;;;;;6.30;59.53;100621.91;4392784;32;29106;-92
2022/12/03 07:38:29;;;;;;;51.72;18.92;;;;;;;6.40;59.53;100621.06;4403635;32;20162;-92
2022/12/03 07:40:54;;;;;;;45.97;20.58;;;;;;;6.50;59.54;100621.91;4402826;32;20343;-92
2022/12/03 07:43:20;;;;;;;47.65;18.62;;;;;;;6.43;59.54;100621.06;4402004;32;38146;-92
2022/12/03 07:45:45;;;;;;;50.80;20.35;;;;;;;6.45;59.54;100621.06;4401971;32;38441;-91
2022/12/03 07:48:11;;;;;;;45.33;19.08;;;;;;;6.62;59.55;100610.66;4402102;32;34639;-92
2022/12/03 07:50:49;;;;;;;39.13;18.83;;;;;;;6.54;59.54;100608.09;4416144;32;20108;-92
2022/12/03 07:53:14;;;;;;;47.22;18.58;;;;;;;6.57;59.54;100610.69;4400726;32;20091;-88
2022/12/03 07:55:40;;;;;;;46.03;19.65;;;;;;;6.61;59.55;100601.19;4400509;32;20113;-90
2022/12/03 07:58:08;;;;;;;44.47;18.52;;;;;;;6.59;59.55;100605.50;4407721;32;20137;-87
2022/12/03 08:00:34;;;;;;;44.63;19.87;;;;;;;6.59;59.55;100602.91;4388516;32;20173;-90
2022/12/03 08:02:59;;;;;;;48.40;18.33;;;;;;;6.62;59.54;100600.31;4398658;32;20181;-89
2022/12/03 08:05:25;;;;;;;42.75;19.30;;;;;;;6.68;59.56;100610.66;4420609;32;20158;-88
2022/12/03 08:07:51;;;;;;;41.78;20.02;;;;;;;6.77;59.55;100605.47;4401154;32;20138;-88
2022/12/03 08:10:16;;;;;;;39.92;19.70;;;;;;;6.89;59.56;100613.19;4399278;32;20435;-88
2022/12/03 08:12:42;;;;;;;42.72;19.67;;;;;;;7.03;59.58;100615.72;4401169;32;20149;-90
2022/12/03 08:15:22;;;;;;;43.42;20.85;;;;;;;7.01;59.57;100618.31;4390532;32;20143;-94
2022/12/03 08:18:04;;;;;;;43.17;20.08;;;;;;;7.09;59.58;100624.31;4403402;32;20113;-94
2022/12/03 08:20:43;;;;;;;43.45;19.58;;;;;;;6.91;59.56;100627.00;4415867;32;20156;-89
2022/12/03 08:23:14;;;;;;;45.95;19.65;;;;;;;7.12;59.58;100630.37;4391877;32;20548;-89
2022/12/03 08:25:45;;;;;;;40.25;18.50;;;;;;;7.08;59.57;100630.37;4376914;32;20136;-92
2022/12/03 08:29:12;;;;;;;43.65;20.35;;;;;;;7.13;59.57;100625.19;4386757;32;20135;-92
2022/12/03 08:31:41;;;;;;;45.95;19.52;;;;;;;7.27;59.58;100612.16;4395526;32;20656;-92
2022/12/03 08:34:17;;;;;;;42.33;19.08;;;;;;;7.23;59.58;100606.16;4406295;32;20093;-94
2022/12/03 08:36:42;;;;;;;42.92;19.12;;;;;;;7.31;59.58;100606.09;4427959;32;20750;-89
2022/12/03 08:42:42;;;;;;;49.72;20.05;;;;;;;7.19;59.58;100613.94;4415415;32;20086;-88
2022/12/03 08:45:19;;;;;;;48.50;21.00;;;;;;;7.14;59.57;100621.72;4388532;32;20089;-87
2022/12/03 08:47:45;;;;;;;48.17;21.15;;;;;;;7.28;59.58;100624.25;4412094;32;20106;-88
2022/12/03 08:50:30;;;;;;;49.53;20.58;;;;;;;7.18;59.58;100633.78;4387670;32;20097;-85
2022/12/03 08:53:31;;;;;;;49.20;22.70;;;;;;;7.23;59.58;100646.72;4413329;32;20093;-91
2022/12/03 08:55:58;;;;;;;46.50;20.75;;;;;;;7.27;59.58;100646.69;4409465;32;20079;-88
2022/12/03 08:58:30;;;;;;;49.03;20.15;;;;;;;7.31;59.58;100648.41;4391630;32;20113;-90
2022/12/03 09:01:17;;;;;;;53.38;20.95;;;;;;;7.39;59.58;100649.25;4411339;32;20469;-92
2022/12/03 09:03:53;;;;;;;52.62;22.80;;;;;;;7.35;59.59;100646.69;4413415;32;21333;-89
2022/12/03 09:06:21;;;;;;;53.00;21.02;;;;;;;7.43;59.59;100642.31;4401388;32;20077;-88
2022/12/03 09:08:56;;;;;;;53.58;21.37;;;;;;;7.35;59.59;100631.13;4400477;32;20133;-88
2022/12/03 09:11:21;;;;;;;46.25;21.48;;;;;;;7.50;59.60;100635.38;4389690;32;20443;-88
2022/12/03 09:13:46;;;;;;;49.20;20.67;;;;;;;7.36;59.59;100633.72;4394657;32;20119;-87
2022/12/03 09:16:15;;;;;;;47.42;20.83;;;;;;;7.20;59.58;100626.87;4401567;32;20141;-91
2022/12/03 09:18:41;;;;;;;50.53;22.02;;;;;;;7.19;59.59;100619.97;4414274;32;20129;-91
2022/12/03 09:21:06;;;;;;;48.78;20.83;;;;;;;7.12;59.58;100622.63;4401253;32;20770;-91
2022/12/03 09:23:32;;;;;;;46.13;20.42;;;;;;;7.29;59.58;100620.78;4395250;32;20269;-88
2022/12/03 09:25:57;;;;;;;52.35;21.62;;;;;;;7.36;59.59;100623.34;4383370;32;20145;-88
2022/12/03 09:28:25;;;;;;;42.62;19.35;;;;;;;7.28;59.58;100622.53;4397524;32;20098;-92
2022/12/03 09:30:53;;;;;;;52.15;22.13;;;;;;;7.31;59.58;100611.28;4399201;32;20104;-92
2022/12/03 09:33:18;;;;;;;50.17;20.83;;;;;;;7.37;59.59;100619.03;4389570;32;178113;-85
2022/12/03 09:35:44;;;;;;;47.20;20.62;;;;;;;7.29;59.58;100621.66;4424064;32;20413;-88
2022/12/03 09:38:09;;;;;;;49.03;22.20;;;;;;;7.32;59.58;100620.78;4424096;32;20340;-90
2022/12/03 09:40:35;;;;;;;50.42;21.35;;;;;;;7.33;59.59;100600.06;4406977;32;20205;-90
2022/12/03 09:43:00;;;;;;;51.08;22.60;;;;;;;7.24;59.58;100605.28;4404683;32;20113;-89
2022/12/03 09:45:26;;;;;;;46.03;20.92;;;;;;;7.48;59.60;100608.59;4413569;32;20136;-90
2022/12/03 09:47:51;;;;;;;46.72;20.65;;;;;;;7.65;59.60;100614.56;4386265;32;20426;-95
2022/12/03 09:50:23;;;;;;;51.50;22.17;;;;;;;7.78;59.62;100611.00;4398527;32;20125;-90
2022/12/03 09:52:53;;;;;;;42.65;20.85;;;;;;;7.84;59.62;100608.38;4398222;32;20084;-93
2022/12/03 09:55:32;;;;;;;40.78;19.17;;;;;;;8.04;59.62;100590.06;4401102;32;20155;-95
2022/12/03 09:57:59;;;;;;;44.83;19.62;;;;;;;8.16;59.63;100594.31;4404791;32;20132;-96
2022/12/03 10:00:26;;;;;;;43.40;18.67;;;;;;;8.18;59.63;100596.00;4402318;32;20132;-96
2022/12/03 10:03:04;;;;;;;50.60;19.70;;;;;;;8.16;59.63;100597.75;4420700;32;20113;-96
2022/12/03 10:05:29;;;;;;;44.03;19.77;;;;;;;8.15;59.63;100585.66;4416154;32;20103;-96
2022/12/03 10:08:00;;;;;;;48.60;19.92;;;;;;;8.27;59.64;100576.91;4386782;32;20136;-96
2022/12/03 10:10:27;;;;;;;44.92;18.15;;;;;;;8.41;59.65;100579.41;4389099;32;20082;-95
2022/12/03 10:12:54;;;;;;;42.62;18.90;;;;;;;8.50;59.65;100581.88;4416812;32;20116;-96
2022/12/03 10:15:26;;;;;;;44.30;19.58;;;;;;;8.58;59.65;100582.69;4404575;32;20150;-96
2022/12/03 10:18:01;;;;;;;42.62;19.23;;;;;;;8.58;59.65;100582.69;4435382;32;20201;-96
2022/12/03 10:20:35;;;;;;;41.20;20.23;;;;;;;8.64;59.66;100574.84;4421740;32;20085;-96
2022/12/03 10:23:02;;;;;;;41.28;18.67;;;;;;;8.53;59.66;100574.09;4435308;32;20167;-96
2022/12/03 10:26:15;;;;;;;37.80;18.40;;;;;;;8.56;59.65;100569.75;4421069;32;20089;-96
2022/12/03 10:28:46;;;;;;;37.50;17.75;;;;;;;8.62;59.66;100566.22;4388521;32;20071;-96
2022/12/03 10:31:21;;;;;;;41.67;18.25;;;;;;;8.65;59.66;100560.13;4385044;32;20105;-96
2022/12/03 10:33:52;;;;;;;38.55;18.35;;;;;;;8.51;59.66;100552.47;4418646;32;20093;-96
2022/12/03 10:36:26;;;;;;;40.30;18.85;;;;;;;8.47;59.65;100548.19;4427148;32;20138;-96
2022/12/03 10:39:25;;;;;;;37.88;17.42;;;;;;;8.54;59.66;100545.53;4401940;32;20078;-96
2022/12/03 10:41:53;;;;;;;38.88;18.02;;;;;;;8.76;59.67;100540.97;4410691;32;20113;-96
2022/12/03 10:44:20;;;;;;;37.75;17.83;;;;;;;8.88;59.67;100547.72;4396059;32;20062;-96
2022/12/03 10:47:37;;;;;;;38.33;19.27;;;;;;;9.03;59.68;100546.69;4396987;32;20110;-96
2022/12/03 10:50:36;;;;;;;36.60;16.77;;;;;;;9.11;59.68;100548.28;4451739;32;20088;-96
2022/12/03 10:55:40;;;;;;;42.67;18.65;;;;;;;9.01;59.68;100531.13;4404215;32;20126;-96
2022/12/03 10:58:50;;;;;;;37.42;15.93;;;;;;;9.04;59.68;100527.63;4391477;32;20086;-96
2022/12/03 11:02:14;;;;;;;36.08;15.57;;;;;;;9.01;59.68;100532.88;4404085;32;20075;-96
2022/12/03 11:05:27;;;;;;;37.05;17.77;;;;;;;9.01;59.68;100525.06;4393337;32;20092;-96
2022/12/03 11:07:57;;;;;;;35.97;15.50;;;;;;;9.19;59.69;100515.28;4502450;27;20228;-96
2022/12/03 11:10:32;;;;;;;33.95;16.12;;;;;;;9.07;59.68;100520.66;4421520;32;20062;-96
2022/12/03 11:13:33;;;;;;;35.83;15.82;;;;;;;9.20;59.69;100526.53;4405796;32;20090;-96
2022/12/03 11:16:34;;;;;;;33.35;16.00;;;;;;;9.12;59.69;100523.19;4429361;32;20118;-96
2022/12/03 11:24:21;;;;;;;27.35;13.38;;;;;;;9.44;59.70;100502.78;4417174;32;20111;-96
2022/12/03 11:26:59;;;;;;;27.37;14.02;;;;;;;9.34;59.70;100495.16;4391396;32;20098;-96
2022/12/03 11:29:46;;;;;;;28.98;13.88;;;;;;;9.39;59.70;100491.59;4406176;32;20046;-92
2022/12/03 11:32:42;;;;;;;31.37;14.48;;;;;;;9.34;59.71;100490.81;4425943;27;20058;-96
2022/12/03 11:35:13;;;;;;;24.02;12.68;;;;;;;9.33;59.69;100491.72;4407781;32;20760;-96
2022/12/03 11:37:39;;;;;;;31.92;13.98;;;;;;;9.22;59.69;100498.78;4410538;32;20050;-93
2022/12/03 11:40:16;;;;;;;29.15;13.15;;;;;;;9.37;59.70;100492.50;4370719;32;20141;-93
2022/12/03 11:42:42;;;;;;;25.50;14.10;;;;;;;9.30;59.70;100488.31;4387051;32;20118;-94
2022/12/03 11:45:22;;;;;;;26.65;15.23;;;;;;;9.36;59.70;100489.06;4378547;32;20102;-93
2022/12/03 11:48:09;;;;;;;30.33;14.27;;;;;;;9.26;59.70;100492.69;4369496;32;20178;-93
2022/12/03 11:50:50;;;;;;;24.83;12.80;;;;;;;9.31;59.69;100490.88;4383964;32;20473;-92
2022/12/03 11:53:22;;;;;;;30.25;14.15;;;;;;;9.30;59.70;100483.09;4384176;32;20732;-92
2022/12/03 11:56:04;;;;;;;26.60;13.55;;;;;;;9.33;59.69;100478.72;4386999;32;20092;-92
2022/12/03 11:58:30;;;;;;;28.33;12.93;;;;;;;9.35;59.70;100476.09;4382795;32;20164;-93